Time;durP1;ratioP1;P1;durP2;ratioP2;P2;SDS_P1;SDS_P2;PMS_P1;PMS_P2;Temp;Humidity;BMP_temperature;BMP_pressure;BME280_temperature;BME280_humidity;BME280_pressure;Samples;Min_cycle;Max_cycle;Signal;HPM_P1;HPM_P2
2021/01/25 00:00:51;;;;;;;9.38;5.85;;;;;;;6.58;84.99;98196.02;1705518;84;21639;-77
2021/01/25 00:03:18;;;;;;;8.40;5.53;;;;;;;6.53;85.24;98194.23;1709899;82;21162;-77
2021/01/25 00:05:46;;;;;;;9.45;6.00;;;;;;;6.64;84.92;98202.09;1706436;84;21507;-77
2021/01/25 00:08:13;;;;;;;8.90;6.40;;;;;;;6.61;84.87;98208.92;1697887;84;21219;-77
2021/01/25 00:10:43;;;;;;;7.55;5.50;;;;;;;6.51;85.15;98214.51;1701838;84;21844;-77
2021/01/25 00:13:11;;;;;;;8.45;6.10;;;;;;;6.58;85.02;98215.71;1709790;82;21832;-77
2021/01/25 00:15:40;;;;;;;10.50;6.70;;;;;;;6.63;84.84;98208.30;1738272;82;21687;-76
2021/01/25 00:18:07;;;;;;;9.58;6.10;;;;;;;6.55;85.12;98214.16;1709692;84;21190;-76
2021/01/25 00:20:35;;;;;;;8.25;5.95;;;;;;;6.58;85.14;98201.76;1726504;82;21179;-76
2021/01/25 00:23:02;;;;;;;9.10;6.15;;;;;;;6.68;84.82;98200.07;1691778;84;21664;-76
2021/01/25 00:25:30;;;;;;;9.03;5.62;;;;;;;6.64;84.93;98203.41;1690199;84;21183;-76
2021/01/25 00:27:57;;;;;;;7.15;5.28;;;;;;;6.57;85.12;98196.96;1691501;84;21222;-76
2021/01/25 00:30:24;;;;;;;9.45;6.12;;;;;;;6.68;84.88;98201.39;1692929;84;21206;-77
2021/01/25 00:32:51;;;;;;;6.40;5.00;;;;;;;6.72;84.67;98201.00;1684214;84;21306;-76
2021/01/25 00:35:20;;;;;;;6.33;4.58;;;;;;;6.63;84.78;98203.05;1662431;86;21223;-76
2021/01/25 00:37:47;;;;;;;7.45;4.78;;;;;;;6.62;84.75;98190.87;1682803;85;21381;-76
2021/01/25 00:40:15;;;;;;;7.10;4.83;;;;;;;6.71;84.45;98187.99;1684939;85;21353;-76
2021/01/25 00:42:43;;;;;;;7.62;4.85;;;;;;;6.63;84.55;98189.09;1690841;83;21325;-76
2021/01/25 00:45:13;;;;;;;6.30;4.62;;;;;;;6.53;84.81;98187.20;1718093;83;21136;-76
2021/01/25 00:47:41;;;;;;;6.97;4.50;;;;;;;6.60;84.60;98173.09;1715831;82;21655;-76
2021/01/25 00:50:09;;;;;;;5.45;4.10;;;;;;;6.59;84.58;98167.48;1717443;83;21202;-76
2021/01/25 00:52:37;;;;;;;5.58;4.25;;;;;;;6.49;84.85;98165.23;1710801;83;21202;-76
2021/01/25 00:55:07;;;;;;;6.95;4.83;;;;;;;6.50;84.86;98166.91;1712655;83;21223;-76
2021/01/25 00:57:35;;;;;;;8.23;4.87;;;;;;;6.54;84.72;98161.27;1716710;83;21175;-76
2021/01/25 01:00:08;;;;;;;6.35;4.25;;;;;;;6.48;84.91;98155.67;1716515;83;21174;-76
2021/01/25 01:55:01;;;;;;;8.10;5.55;;;;;;;6.30;85.54;98153.53;1740295;77;21165;-76
2021/01/25 01:57:30;;;;;;;8.75;6.50;;;;;;;6.40;85.29;98152.34;1727383;82;21336;-75
2021/01/25 01:59:57;;;;;;;14.10;6.33;;;;;;;6.43;85.08;98153.40;1696965;83;21244;-75
2021/01/25 02:02:25;;;;;;;7.08;5.40;;;;;;;6.35;85.29;98150.55;1716443;83;21202;-75
2021/01/25 02:04:53;;;;;;;8.75;6.00;;;;;;;6.34;85.30;98142.31;1712149;83;21195;-76
2021/01/25 02:07:20;;;;;;;8.60;5.72;;;;;;;6.41;85.09;98144.83;1704667;83;21327;-76
2021/01/25 02:09:47;;;;;;;9.48;6.60;;;;;;;6.33;85.21;98149.37;1699495;83;21219;-75
2021/01/25 02:12:16;;;;;;;8.50;5.25;;;;;;;6.26;85.46;98153.42;1692864;83;21182;-76
2021/01/25 02:14:44;;;;;;;8.30;6.20;;;;;;;6.35;85.21;98151.38;1709325;83;21253;-76
2021/01/25 02:41:04;;;;;;;8.75;5.78;;;;;;;6.21;85.62;98170.01;1767500;77;21201;-74
2021/01/25 02:43:31;;;;;;;10.70;5.67;;;;;;;6.29;85.36;98174.20;1713161;83;21687;-75
2021/01/25 02:45:58;;;;;;;10.85;5.53;;;;;;;6.20;85.49;98169.64;1724657;82;21623;-75
2021/01/25 02:48:26;;;;;;;8.45;5.30;;;;;;;6.17;85.58;98164.16;1720344;83;21584;-75
2021/01/25 02:50:53;;;;;;;10.10;5.78;;;;;;;6.29;85.26;98163.70;1736644;81;21755;-75
2021/01/25 02:53:20;;;;;;;9.15;5.65;;;;;;;6.27;85.27;98176.59;1745709;81;21201;-75
2021/01/25 02:55:48;;;;;;;11.08;5.90;;;;;;;6.18;85.49;98178.13;1765451;81;21249;-75
2021/01/25 02:58:15;;;;;;;12.35;6.37;;;;;;;6.27;85.26;98181.34;1768002;81;21174;-75
2021/01/25 03:00:42;;;;;;;14.63;6.40;;;;;;;6.30;85.11;98180.27;1768079;81;21552;-75
2021/01/25 03:03:09;;;;;;;8.05;5.15;;;;;;;6.20;85.34;98180.14;1769035;81;21197;-75
2021/01/25 03:05:36;;;;;;;7.37;4.53;;;;;;;6.18;85.41;98175.02;1768162;81;21217;-76
2021/01/25 03:08:04;;;;;;;9.08;5.35;;;;;;;6.25;85.13;98174.05;1769910;81;21551;-75
2021/01/25 03:10:32;;;;;;;9.08;5.95;;;;;;;6.17;85.31;98189.58;1768882;81;21184;-75
2021/01/25 03:13:06;;;;;;;10.25;5.65;;;;;;;6.10;85.55;98191.00;1740562;81;21353;-75
2021/01/25 03:15:35;;;;;;;10.95;6.05;;;;;;;6.20;85.27;98185.39;1761913;81;21183;-74
2021/01/25 03:18:05;;;;;;;11.90;6.25;;;;;;;6.20;85.24;98181.45;1747976;81;21206;-74
2021/01/25 03:20:32;;;;;;;8.95;5.80;;;;;;;6.13;85.40;98173.72;1747248;81;21202;-74
2021/01/25 03:23:01;;;;;;;11.70;6.50;;;;;;;6.19;85.15;98164.03;1759505;81;21167;-74
2021/01/25 03:25:28;;;;;;;10.28;5.78;;;;;;;6.17;85.14;98160.70;1760761;81;21206;-74
2021/01/25 03:27:55;;;;;;;11.40;6.37;;;;;;;6.06;85.42;98166.31;1739509;81;21212;-74
2021/01/25 03:30:23;;;;;;;8.45;5.90;;;;;;;6.08;85.48;98158.31;1698544;82;21230;-75
2021/01/25 03:32:50;;;;;;;10.18;6.03;;;;;;;6.15;85.25;98166.54;1729409;82;22245;-75
2021/01/25 03:35:18;;;;;;;10.50;6.20;;;;;;;6.06;85.49;98154.96;1744792;81;21206;-75
2021/01/25 03:37:45;;;;;;;9.03;5.78;;;;;;;6.05;85.54;98152.00;1731883;82;21164;-75
2021/01/25 03:40:13;;;;;;;10.63;6.70;;;;;;;6.15;85.25;98150.80;1755190;81;21179;-75
2021/01/25 03:42:40;;;;;;;9.20;6.33;;;;;;;6.11;85.29;98144.12;1748062;81;21168;-75
2021/01/25 03:45:08;;;;;;;9.80;6.95;;;;;;;6.02;85.43;98141.27;1733263;83;21165;-75
2021/01/25 03:47:35;;;;;;;9.35;6.45;;;;;;;6.10;85.24;98141.98;1727842;82;21639;-75
2021/01/25 03:50:05;;;;;;;10.88;6.80;;;;;;;6.13;85.06;98135.17;1729651;83;21757;-75
2021/01/25 03:52:33;;;;;;;11.15;7.10;;;;;;;6.03;85.29;98136.35;1728696;82;21241;-75
2021/01/25 03:55:01;;;;;;;10.55;6.80;;;;;;;6.01;85.31;98126.92;1720897;83;21195;-75
2021/01/25 03:57:28;;;;;;;8.80;5.65;;;;;;;6.08;85.05;98136.00;1764890;81;21190;-75
2021/01/25 03:59:55;;;;;;;10.00;6.40;;;;;;;6.02;85.15;98128.14;1748275;81;21576;-75
2021/01/25 04:02:23;;;;;;;10.10;6.75;;;;;;;5.96;85.25;98125.95;1761579;81;21183;-76
2021/01/25 04:04:50;;;;;;;9.88;6.53;;;;;;;6.09;84.91;98135.06;1761002;81;21202;-75
2021/01/25 04:07:17;;;;;;;10.90;7.22;;;;;;;6.11;84.76;98132.30;1740748;81;21175;-76
2021/01/25 04:09:45;;;;;;;9.10;6.42;;;;;;;6.04;84.93;98139.34;1759562;81;21170;-75
2021/01/25 04:12:12;;;;;;;10.30;6.83;;;;;;;6.06;84.89;98146.63;1730209;81;21151;-75
2021/01/25 04:14:39;;;;;;;10.35;6.37;;;;;;;6.15;84.51;98141.14;1760507;81;21617;-76
2021/01/25 04:17:07;;;;;;;10.30;6.67;;;;;;;6.13;84.47;98141.73;1755697;81;21194;-76
2021/01/25 04:19:35;;;;;;;11.08;6.83;;;;;;;6.06;84.59;98138.75;1750390;81;21611;-76
2021/01/25 04:22:03;;;;;;;10.93;7.10;;;;;;;6.15;84.32;98139.84;1729618;81;21686;-76
2021/01/25 04:24:30;;;;;;;11.10;6.70;;;;;;;6.18;84.16;98130.88;1754334;81;21606;-76
2021/01/25 04:26:58;;;;;;;10.68;7.10;;;;;;;6.10;84.30;98138.50;1752270;81;21623;-77
2021/01/25 04:29:25;;;;;;;10.65;7.25;;;;;;;6.03;84.43;98135.53;1746112;81;21218;-77
2021/01/25 04:31:53;;;;;;;11.30;8.30;;;;;;;6.14;84.15;98135.99;1729277;81;21636;-77
2021/01/25 04:34:21;;;;;;;9.23;6.00;;;;;;;6.12;84.19;98133.98;1737003;81;21167;-77
2021/01/25 04:36:48;;;;;;;9.18;6.55;;;;;;;6.05;84.38;98137.08;1743194;81;21604;-77
2021/01/25 04:39:15;;;;;;;9.83;6.80;;;;;;;6.14;84.32;98143.87;1739489;81;21203;-77
2021/01/25 04:41:43;;;;;;;11.25;7.42;;;;;;;6.13;84.38;98129.92;1739523;81;21642;-77
2021/01/25 04:44:10;;;;;;;11.00;7.05;;;;;;;6.03;84.68;98125.85;1748067;82;21337;-77
2021/01/25 04:46:38;;;;;;;12.88;8.00;;;;;;;6.11;84.48;98123.12;1742231;81;21191;-77
2021/01/25 04:49:06;;;;;;;12.15;7.83;;;;;;;6.14;84.43;98122.87;1725289;83;21612;-77
2021/01/25 04:51:33;;;;;;;14.98;7.65;;;;;;;6.07;84.57;98119.89;1713592;82;21215;-76
2021/01/25 04:54:00;;;;;;;10.43;6.70;;;;;;;6.01;84.73;98121.22;1746139;81;21203;-77
2021/01/25 04:56:28;;;;;;;11.60;7.17;;;;;;;6.12;84.46;98124.80;1716678;81;21298;-76
2021/01/25 04:58:55;;;;;;;11.48;7.12;;;;;;;6.04;84.62;98122.77;1717872;82;21223;-76
2021/01/25 05:01:23;;;;;;;12.73;7.62;;;;;;;5.97;84.82;98120.22;1691304;82;21349;-76
2021/01/25 05:03:50;;;;;;;10.38;6.72;;;;;;;6.08;84.55;98120.75;1743853;81;21207;-76
2021/01/25 05:06:17;;;;;;;11.95;7.35;;;;;;;6.02;84.71;98112.40;1748067;81;21175;-77
2021/01/25 05:08:45;;;;;;;11.33;7.97;;;;;;;5.93;84.87;98113.55;1733996;81;21235;-76
2021/01/25 05:11:16;;;;;;;11.90;7.72;;;;;;;6.04;84.63;98118.84;1737286;82;21199;-76
2021/01/25 05:13:43;;;;;;;11.80;7.33;;;;;;;6.04;84.62;98110.96;1748097;81;21215;-76
2021/01/25 05:16:22;;;;;;;11.55;7.25;;;;;;;5.99;84.75;98113.94;1739383;81;21198;-77
2021/01/25 05:18:59;;;;;;;11.88;7.55;;;;;;;6.05;84.54;98104.27;1748160;82;21179;-76
2021/01/25 05:35:07;;;;;;;13.85;7.72;;;;;;;5.76;84.85;98138.47;1805051;77;21616;-76
2021/01/25 05:37:35;;;;;;;10.72;7.50;;;;;;;5.83;84.59;98137.02;1735643;82;21171;-75
2021/01/25 05:40:03;;;;;;;12.10;7.70;;;;;;;5.81;84.67;98136.33;1766580;81;21170;-75
2021/01/25 05:42:34;;;;;;;12.65;8.08;;;;;;;5.76;84.76;98143.22;1759277;81;21166;-75
2021/01/25 05:45:07;;;;;;;10.50;7.35;;;;;;;5.85;84.51;98140.38;1736200;82;21323;-75
2021/01/25 05:47:50;;;;;;;11.50;7.72;;;;;;;5.86;84.40;98145.98;1767272;81;21304;-75
2021/01/25 06:06:32;;;;;;;12.53;7.65;;;;;;;5.73;84.68;98142.16;1739304;78;21333;-74
2021/01/25 06:09:20;;;;;;;13.05;7.90;;;;;;;5.71;84.76;98132.25;1775619;79;21595;-74
2021/01/25 06:22:45;;;;;;;15.98;8.48;;;;;;;5.64;84.90;98121.39;1766013;80;22873;-74
2021/01/25 06:54:12;;;;;;;10.93;6.87;;;;;;;5.85;82.97;98120.70;1721085;81;21323;-74
2021/01/25 06:56:59;;;;;;;9.63;6.62;;;;;;;5.80;82.93;98119.73;1709601;83;21198;-74
2021/01/25 06:59:47;;;;;;;12.85;7.35;;;;;;;5.68;83.21;98122.83;1698869;84;21190;-73
2021/01/25 07:02:19;;;;;;;11.75;7.55;;;;;;;5.64;83.06;98124.02;1682822;82;21659;-73
2021/01/25 07:04:47;;;;;;;13.60;7.05;;;;;;;5.68;82.99;98114.95;1682125;85;21217;-73
2021/01/25 07:07:30;;;;;;;10.53;6.83;;;;;;;5.61;83.16;98124.23;1692167;82;22172;-74
2021/01/25 07:09:58;;;;;;;11.48;7.03;;;;;;;5.59;83.21;98124.84;1698827;84;21620;-76
2021/01/25 07:12:26;;;;;;;11.08;6.92;;;;;;;5.55;82.93;98100.64;1722659;82;21151;-74
2021/01/25 07:14:53;;;;;;;9.78;6.95;;;;;;;5.66;82.99;98124.72;1770411;81;21181;-76
2021/01/25 07:17:20;;;;;;;11.55;7.67;;;;;;;5.64;82.91;98116.61;1764180;81;21196;-77
2021/01/25 07:19:50;;;;;;;11.22;7.17;;;;;;;5.71;82.70;98130.94;1741892;81;21114;-79
2021/01/25 07:22:17;;;;;;;13.88;7.22;;;;;;;5.66;82.64;98120.78;1687895;83;21255;-77
2021/01/25 07:24:44;;;;;;;11.08;6.67;;;;;;;5.63;82.77;98119.72;1709109;84;21667;-80
2021/01/25 07:27:11;;;;;;;12.37;7.33;;;;;;;5.73;82.93;98123.80;1710610;84;21201;-78
2021/01/25 07:29:38;;;;;;;11.25;7.15;;;;;;;5.70;82.99;98122.25;1741951;82;21217;-78
2021/01/25 07:32:07;;;;;;;11.38;6.85;;;;;;;5.68;82.69;98114.95;1715716;82;21195;-78
2021/01/25 07:34:35;;;;;;;11.63;7.67;;;;;;;5.72;82.51;98101.95;1688372;84;21246;-78
2021/01/25 07:37:03;;;;;;;12.15;7.87;;;;;;;5.60;82.76;98111.24;1662911;84;21206;-78
2021/01/25 07:39:30;;;;;;;10.85;7.45;;;;;;;5.58;82.93;98102.19;1711249;84;21591;-78
2021/01/25 07:41:57;;;;;;;11.80;7.80;;;;;;;5.68;82.73;98109.71;1707834;82;21182;-78
2021/01/25 07:44:25;;;;;;;14.00;6.80;;;;;;;5.63;82.70;98111.85;1713113;82;21246;-77
2021/01/25 07:46:58;;;;;;;11.20;6.92;;;;;;;5.60;82.77;98117.34;1732258;82;21227;-77
2021/01/25 07:49:27;;;;;;;11.12;7.08;;;;;;;5.63;82.28;98115.78;1711969;83;21187;-77
2021/01/25 07:51:54;;;;;;;14.47;8.58;;;;;;;5.66;82.23;98091.94;1715109;83;21215;-77
2021/01/25 07:54:23;;;;;;;12.03;7.03;;;;;;;5.56;82.55;98081.33;1748472;81;21183;-77
2021/01/25 07:56:53;;;;;;;12.13;7.72;;;;;;;5.57;82.66;98069.05;1742393;81;21673;-77
2021/01/25 07:59:22;;;;;;;13.45;7.58;;;;;;;5.58;82.61;98075.97;1746871;82;21214;-77
2021/01/25 08:02:06;;;;;;;12.13;6.95;;;;;;;5.45;83.05;98070.83;1740699;81;21172;-77
2021/01/25 08:04:36;;;;;;;11.83;7.55;;;;;;;5.45;83.14;98077.84;1739874;81;21221;-77
2021/01/25 08:07:03;;;;;;;13.22;8.45;;;;;;;5.51;83.13;98099.66;1735520;81;21207;-80
2021/01/25 08:09:37;;;;;;;12.75;8.10;;;;;;;5.43;83.14;98088.45;1738737;81;21202;-78
2021/01/25 08:12:00;;;;;;;12.82;8.00;;;;;;;5.49;83.15;98089.78;1744442;82;21317;-77
2021/01/25 08:14:34;;;;;;;14.83;8.55;;;;;;;5.52;83.17;98073.80;1733895;81;21322;-78
2021/01/25 08:41:32;;;;;;;18.48;9.43;;;;;;;5.50;83.02;98050.33;1725434;79;21170;-76
2021/01/25 08:44:02;;;;;;;15.18;9.65;;;;;;;5.49;83.11;98058.33;1746711;81;21447;-79
2021/01/25 08:46:35;;;;;;;14.15;8.95;;;;;;;5.50;82.95;98053.41;1755521;81;21254;-78
2021/01/25 08:49:19;;;;;;;16.45;10.58;;;;;;;5.60;82.88;98047.00;1752034;81;22150;-79
2021/01/25 08:52:08;;;;;;;15.18;9.28;;;;;;;5.56;82.64;98044.63;1745306;81;21630;-79
2021/01/25 09:13:17;;;;;;;20.02;12.30;;;;;;;5.62;83.03;98026.25;1823451;77;21139;-76
2021/01/25 09:15:46;;;;;;;17.27;10.00;;;;;;;5.64;83.25;98022.19;1762914;81;21138;-77
2021/01/25 09:18:13;;;;;;;20.37;11.40;;;;;;;5.67;83.12;98010.99;1832454;77;21295;-75
2021/01/25 09:20:40;;;;;;;21.00;11.78;;;;;;;5.58;83.30;98015.65;1761495;81;21166;-75
2021/01/25 09:23:08;;;;;;;19.05;11.65;;;;;;;5.69;83.27;98023.52;1758988;80;21665;-76
2021/01/25 09:25:53;;;;;;;18.48;10.93;;;;;;;5.68;83.35;98029.72;1764799;80;21364;-76
2021/01/25 09:28:20;;;;;;;18.85;11.63;;;;;;;5.70;83.50;98013.39;1768370;81;21174;-76
2021/01/25 09:30:47;;;;;;;18.52;10.68;;;;;;;5.86;83.20;97989.89;1758406;80;21667;-77
2021/01/25 09:33:15;;;;;;;16.50;9.43;;;;;;;5.88;83.19;97993.20;1742796;81;21623;-76
2021/01/25 09:35:43;;;;;;;17.30;10.05;;;;;;;5.74;83.27;97989.90;1753421;80;21216;-76
2021/01/25 09:38:10;;;;;;;18.62;10.80;;;;;;;5.77;83.32;98003.70;1741719;81;21203;-77
2021/01/25 09:40:38;;;;;;;19.60;11.33;;;;;;;5.82;83.28;98004.18;1735385;80;21215;-77
2021/01/25 09:43:06;;;;;;;19.70;11.57;;;;;;;5.84;83.22;97997.03;1797191;78;21208;-78
2021/01/25 09:45:33;;;;;;;19.98;11.35;;;;;;;5.79;83.32;97988.70;1781900;78;21178;-76
2021/01/25 09:48:04;;;;;;;18.35;11.33;;;;;;;5.89;83.29;97990.95;1782332;78;21111;-77
2021/01/25 09:50:29;;;;;;;22.87;12.35;;;;;;;6.02;82.96;97989.52;1798028;78;21159;-77
2021/01/25 09:52:57;;;;;;;18.57;10.05;;;;;;;6.00;83.05;97986.20;1817764;78;21190;-76
2021/01/25 09:55:24;;;;;;;16.37;10.23;;;;;;;5.98;83.08;97978.43;1774958;78;21161;-76
2021/01/25 09:57:52;;;;;;;18.32;10.48;;;;;;;6.10;82.68;97974.02;1764272;81;21340;-76
2021/01/25 10:00:20;;;;;;;18.60;11.33;;;;;;;6.09;82.53;97968.40;1748753;81;21183;-76
2021/01/25 10:02:48;;;;;;;19.65;12.37;;;;;;;5.98;82.73;97967.94;1752629;81;21659;-76
2021/01/25 11:17:34;;;;;;;16.65;9.88;;;;;;;6.16;82.29;97809.94;1758475;78;21809;-75
2021/01/25 11:20:05;;;;;;;19.32;10.45;;;;;;;6.22;82.19;97804.19;1760571;79;21147;-75
2021/01/25 11:22:32;;;;;;;12.88;8.60;;;;;;;6.16;82.47;97792.88;1758001;80;21655;-74
2021/01/25 11:24:59;;;;;;;15.60;9.33;;;;;;;6.26;82.45;97792.45;1762525;80;21199;-75
2021/01/25 11:27:26;;;;;;;14.38;8.33;;;;;;;6.30;82.34;97785.98;1764330;80;21230;-75
2021/01/25 11:29:55;;;;;;;18.02;8.28;;;;;;;6.16;82.80;97795.02;1755485;80;21171;-74
2021/01/25 11:32:22;;;;;;;12.37;7.72;;;;;;;6.22;82.69;97797.63;1767488;80;21230;-75
2021/01/25 11:34:52;;;;;;;15.25;8.70;;;;;;;6.19;82.85;97792.15;1767502;80;21132;-74
2021/01/25 11:37:19;;;;;;;12.35;7.55;;;;;;;6.15;83.11;97793.83;1769186;80;21234;-75
2021/01/25 11:39:46;;;;;;;16.82;9.48;;;;;;;6.20;83.09;97795.59;1751551;80;21162;-76
2021/01/25 11:42:13;;;;;;;13.38;8.20;;;;;;;6.18;83.22;97774.73;1760570;79;21194;-76
2021/01/25 11:44:40;;;;;;;13.15;8.45;;;;;;;6.17;83.48;97774.86;1763847;80;21166;-76
2021/01/25 11:47:07;;;;;;;16.70;8.13;;;;;;;6.26;83.30;97771.45;1760429;79;21581;-76
2021/01/25 11:49:35;;;;;;;13.90;8.70;;;;;;;6.31;83.15;97767.14;1742692;80;21215;-76
2021/01/25 11:52:03;;;;;;;13.50;8.38;;;;;;;6.27;83.28;97765.25;1737410;81;21163;-76
2021/01/25 11:54:30;;;;;;;17.10;9.55;;;;;;;6.36;83.14;97759.22;1727691;82;21190;-76
2021/01/25 11:56:58;;;;;;;18.90;9.40;;;;;;;6.41;82.99;97764.09;1753289;81;21178;-77
2021/01/25 11:59:25;;;;;;;13.50;8.15;;;;;;;6.39;83.09;97751.09;1752423;80;21218;-76
2021/01/25 12:01:52;;;;;;;12.50;7.65;;;;;;;6.41;83.08;97756.21;1777925;80;21155;-76
2021/01/25 12:04:20;;;;;;;14.55;9.48;;;;;;;6.51;82.84;97753.61;1698142;83;21187;-76
2021/01/25 12:06:53;;;;;;;16.65;10.10;;;;;;;6.48;82.89;97746.01;1754771;80;21170;-76
2021/01/25 12:09:21;;;;;;;13.60;8.83;;;;;;;6.44;83.05;97734.11;1711923;81;22172;-75
2021/01/25 12:11:51;;;;;;;17.57;9.60;;;;;;;6.52;82.85;97733.80;1724994;81;21612;-76
2021/01/25 12:14:18;;;;;;;17.37;11.03;;;;;;;6.58;82.70;97728.49;1753005;81;21223;-75
2021/01/25 12:16:46;;;;;;;25.20;10.20;;;;;;;6.48;82.93;97732.88;1756528;80;21595;-76
2021/01/25 12:19:13;;;;;;;17.07;10.38;;;;;;;6.44;83.31;97715.73;1752372;80;21151;-77
2021/01/25 12:21:45;;;;;;;20.55;10.98;;;;;;;6.51;82.93;97715.53;1753924;81;21623;-79
2021/01/25 12:24:12;;;;;;;17.50;11.35;;;;;;;6.47;82.96;97719.39;1767673;79;22207;-77
2021/01/25 12:26:40;;;;;;;16.95;11.63;;;;;;;6.38;83.17;97724.48;1717885;81;21191;-77
2021/01/25 12:29:07;;;;;;;22.65;12.70;;;;;;;6.45;83.12;97716.09;1680733;85;21231;-79
2021/01/25 12:31:34;;;;;;;22.98;12.03;;;;;;;6.40;83.19;97710.73;1720987;82;21206;-79
2021/01/25 12:34:02;;;;;;;18.40;12.03;;;;;;;6.37;83.48;97708.38;1750482;81;21186;-77
2021/01/25 12:36:30;;;;;;;16.37;10.63;;;;;;;6.38;83.60;97692.98;1753646;80;21199;-77
2021/01/25 12:38:57;;;;;;;18.55;11.53;;;;;;;6.48;83.36;97706.62;1753139;80;21210;-77
2021/01/25 12:41:25;;;;;;;17.55;11.20;;;;;;;6.40;83.52;97719.91;1755638;78;21203;-77
2021/01/25 12:43:52;;;;;;;19.85;12.90;;;;;;;6.42;83.53;97691.39;1774613;78;21191;-77
2021/01/25 12:46:21;;;;;;;18.45;11.15;;;;;;;6.46;83.42;97693.63;1775668;78;21183;-77
2021/01/25 12:48:49;;;;;;;19.40;11.63;;;;;;;6.38;83.63;97679.85;1760040;79;21187;-77
2021/01/25 12:51:16;;;;;;;17.25;10.58;;;;;;;6.37;83.81;97707.55;1777523;80;21124;-76
2021/01/25 12:53:43;;;;;;;19.42;12.95;;;;;;;6.48;83.51;97686.92;1755602;79;21341;-74
2021/01/25 12:56:10;;;;;;;17.95;11.35;;;;;;;6.38;83.70;97682.48;1720768;81;21143;-74
2021/01/25 12:58:37;;;;;;;19.32;11.05;;;;;;;6.34;83.84;97684.17;1749466;80;21198;-79
2021/01/25 13:01:04;;;;;;;18.45;11.55;;;;;;;6.42;83.76;97676.48;1758088;80;21127;-76
2021/01/25 13:03:32;;;;;;;18.90;11.48;;;;;;;6.40;83.72;97679.71;1761020;80;21312;-76
2021/01/25 13:05:59;;;;;;;15.50;10.75;;;;;;;6.29;84.09;97678.02;1747483;81;21315;-76
2021/01/25 13:08:27;;;;;;;21.35;11.65;;;;;;;6.37;83.97;97661.12;1696119;82;21195;-76
2021/01/25 13:10:54;;;;;;;18.73;11.03;;;;;;;6.36;83.99;97673.07;1705370;82;22274;-77
2021/01/25 13:13:22;;;;;;;20.77;12.10;;;;;;;6.22;84.33;97663.27;1753208;80;21730;-76
2021/01/25 13:15:50;;;;;;;19.98;11.78;;;;;;;6.27;84.32;97661.56;1762136;80;21167;-76
2021/01/25 13:18:17;;;;;;;19.67;11.70;;;;;;;6.22;84.42;97660.64;1778850;78;21182;-77
2021/01/25 13:20:46;;;;;;;19.82;11.00;;;;;;;6.19;84.68;97648.25;1749216;80;21159;-76
2021/01/25 13:23:14;;;;;;;17.52;11.43;;;;;;;6.32;84.37;97648.88;1754622;80;21308;-76
2021/01/25 13:25:41;;;;;;;18.42;11.45;;;;;;;6.29;84.37;97653.09;1716776;82;21671;-76
2021/01/25 13:28:08;;;;;;;28.98;15.58;;;;;;;6.22;84.71;97657.20;1764680;78;21202;-76
2021/01/25 13:30:36;;;;;;;23.07;11.70;;;;;;;6.34;84.45;97639.08;1772723;80;21155;-76
2021/01/25 13:33:04;;;;;;;17.82;10.35;;;;;;;6.30;84.53;97628.47;1754369;80;21191;-76
2021/01/25 13:35:33;;;;;;;20.95;11.08;;;;;;;6.21;84.85;97629.28;1745422;80;21203;-76
2021/01/25 13:38:00;;;;;;;22.20;11.75;;;;;;;6.31;84.72;97623.58;1757452;79;21160;-77
2021/01/25 13:40:29;;;;;;;22.02;11.12;;;;;;;6.28;84.76;97622.55;1778239;78;21158;-76
2021/01/25 13:42:57;;;;;;;19.25;11.10;;;;;;;6.19;85.06;97616.30;1752995;80;21156;-76
2021/01/25 13:45:29;;;;;;;21.90;12.05;;;;;;;6.26;85.02;97606.09;1753556;80;21202;-79
2021/01/25 13:48:05;;;;;;;23.60;13.68;;;;;;;6.27;85.13;97606.94;1753345;80;21210;-79
2021/01/25 13:50:35;;;;;;;18.32;11.83;;;;;;;6.17;85.35;97597.21;1737861;81;21178;-77
2021/01/25 13:53:05;;;;;;;23.15;12.53;;;;;;;6.28;85.22;97598.92;1746541;81;21215;-79
2021/01/25 13:55:33;;;;;;;21.17;13.40;;;;;;;6.24;85.28;97597.53;1721635;83;21679;-79
2021/01/25 13:58:01;;;;;;;19.95;13.05;;;;;;;6.20;85.55;97595.66;1721423;81;21179;-77
2021/01/25 14:00:30;;;;;;;24.80;13.35;;;;;;;6.29;85.36;97599.27;1727520;81;21203;-77
2021/01/25 14:02:58;;;;;;;20.97;12.20;;;;;;;6.29;85.39;97587.46;1725485;81;21179;-78
2021/01/25 14:05:26;;;;;;;20.37;12.37;;;;;;;6.23;85.58;97588.81;1731931;81;21168;-78
2021/01/25 14:07:54;;;;;;;23.95;12.47;;;;;;;6.34;85.28;97593.14;1724728;81;21214;-77
2021/01/25 14:10:23;;;;;;;20.80;11.90;;;;;;;6.30;85.37;97588.28;1751276;80;21171;-78
2021/01/25 14:12:52;;;;;;;28.23;12.43;;;;;;;6.22;85.66;97575.83;1757395;80;21639;-78
2021/01/25 14:15:20;;;;;;;20.75;12.45;;;;;;;6.29;85.56;97573.02;1753749;80;21632;-78
2021/01/25 14:17:48;;;;;;;22.62;12.25;;;;;;;6.32;85.34;97580.62;1753391;82;21199;-78
2021/01/25 14:20:18;;;;;;;19.27;11.53;;;;;;;6.23;85.66;97577.49;1754320;81;21195;-78
2021/01/25 14:22:45;;;;;;;20.82;12.63;;;;;;;6.28;85.67;97568.73;1754418;80;21202;-78
2021/01/25 14:25:15;;;;;;;24.05;12.68;;;;;;;6.34;85.56;97561.64;1784308;78;21195;-78
2021/01/25 14:27:44;;;;;;;21.12;11.20;;;;;;;6.27;85.79;97568.38;1779720;78;21195;-78
2021/01/25 14:30:16;;;;;;;20.35;13.08;;;;;;;6.31;85.75;97563.20;1783904;80;21659;-78
2021/01/25 14:32:43;;;;;;;21.40;12.28;;;;;;;6.39;85.59;97563.38;1717459;83;21183;-78
2021/01/25 14:35:12;;;;;;;49.00;27.77;;;;;;;6.32;85.79;97560.92;1753425;80;21201;-78
2021/01/25 14:37:40;;;;;;;19.42;12.50;;;;;;;6.31;85.93;97555.81;1753172;80;21134;-78
2021/01/25 14:40:14;;;;;;;19.92;12.05;;;;;;;6.41;85.67;97563.23;1778740;78;21191;-78
2021/01/25 14:42:44;;;;;;;18.98;10.35;;;;;;;6.36;85.85;97547.88;1742728;80;21376;-78
2021/01/25 14:45:13;;;;;;;16.82;10.85;;;;;;;6.32;86.02;97543.05;1777073;80;21147;-77
2021/01/25 14:47:42;;;;;;;20.92;12.15;;;;;;;6.25;86.39;97550.61;1761104;79;21884;-77
2021/01/25 14:50:12;;;;;;;22.75;12.58;;;;;;;6.31;86.36;97549.25;1753486;80;21607;-78
2021/01/25 14:52:39;;;;;;;17.00;11.12;;;;;;;6.23;86.63;97546.81;1753539;80;21246;-77
2021/01/25 14:55:07;;;;;;;21.37;11.78;;;;;;;6.20;86.82;97540.53;1753803;81;21206;-77
2021/01/25 14:57:35;;;;;;;20.12;12.90;;;;;;;6.24;86.86;97542.41;1750724;80;21206;-77
2021/01/25 15:00:06;;;;;;;21.97;12.80;;;;;;;6.23;86.88;97540.25;1771948;80;21586;-78
2021/01/25 15:02:33;;;;;;;24.80;14.85;;;;;;;6.32;86.77;97537.30;1763424;79;21215;-78
2021/01/25 15:05:01;;;;;;;24.45;12.98;;;;;;;6.37;86.65;97532.97;1758470;80;21155;-78
2021/01/25 15:07:28;;;;;;;19.37;11.12;;;;;;;6.32;86.88;97541.73;1756931;80;21140;-77
2021/01/25 15:09:56;;;;;;;21.02;13.55;;;;;;;6.34;87.02;97526.20;1753753;81;21562;-78
2021/01/25 15:12:23;;;;;;;20.90;12.13;;;;;;;6.39;86.89;97523.98;1752778;80;21230;-78
2021/01/25 15:14:51;;;;;;;17.85;11.85;;;;;;;6.30;87.17;97526.09;1755178;80;21223;-78
2021/01/25 15:17:18;;;;;;;19.85;12.28;;;;;;;6.37;87.15;97523.78;1718892;82;21179;-78
2021/01/25 15:19:47;;;;;;;18.70;10.65;;;;;;;6.41;87.09;97522.53;1737533;81;21220;-78
2021/01/25 15:22:14;;;;;;;16.67;10.63;;;;;;;6.35;87.31;97513.39;1753013;80;21178;-79
2021/01/25 15:24:41;;;;;;;16.97;10.32;;;;;;;6.31;87.49;97515.95;1716253;82;21628;-78
2021/01/25 15:27:09;;;;;;;15.60;9.98;;;;;;;6.40;87.38;97513.81;1716752;81;21183;-78
2021/01/25 15:29:36;;;;;;;16.57;9.35;;;;;;;6.45;87.38;97517.84;1717433;82;21183;-79
2021/01/25 15:32:04;;;;;;;14.83;10.08;;;;;;;6.38;87.65;97505.26;1752503;80;21159;-79
2021/01/25 15:34:33;;;;;;;15.28;10.45;;;;;;;6.43;87.59;97510.08;1752368;82;21364;-78
2021/01/25 15:37:00;;;;;;;13.15;9.40;;;;;;;6.50;87.42;97518.27;1749703;81;21222;-78
2021/01/25 15:39:28;;;;;;;14.10;9.10;;;;;;;6.48;87.56;97499.18;1769776;79;21575;-78
2021/01/25 15:41:55;;;;;;;21.50;14.50;;;;;;;6.48;87.73;97508.37;1783343;80;21654;-78
2021/01/25 15:44:22;;;;;;;15.13;9.70;;;;;;;6.52;87.70;97497.93;1754623;80;21167;-78
2021/01/25 15:46:49;;;;;;;13.62;9.58;;;;;;;6.57;87.56;97495.72;1753821;81;21187;-77
2021/01/25 15:49:17;;;;;;;14.23;9.28;;;;;;;6.58;87.63;97501.33;1753536;80;21206;-78
2021/01/25 15:51:44;;;;;;;14.20;10.13;;;;;;;6.57;87.70;97485.21;1753432;80;21175;-78
2021/01/25 15:54:11;;;;;;;15.93;9.90;;;;;;;6.66;87.55;97482.25;1754075;80;21583;-78
2021/01/25 15:56:42;;;;;;;15.83;10.50;;;;;;;6.59;87.85;97482.48;1766571;80;21760;-79
2021/01/25 15:59:08;;;;;;;13.85;10.00;;;;;;;6.65;87.76;97486.68;1758532;80;21179;-77